Time;durP1;ratioP1;P1;durP2;ratioP2;P2;SDS_P1;SDS_P2;PMS_P1;PMS_P2;Temp;Humidity;BMP_temperature;BMP_pressure;BME280_temperature;BME280_humidity;BME280_pressure;Samples;Min_cycle;Max_cycle;Signal;HPM_P1;HPM_P2
2022/03/18 00:00:20;;;;;;;38.70;21.17;;;4.80;85.80;;;;;;6244070;22;19992;-77
2022/03/18 00:02:49;;;;;;;35.05;19.55;;;4.70;85.60;;;;;;6218687;22;20013;-78
2022/03/18 00:05:15;;;;;;;36.83;20.33;;;4.70;84.70;;;;;;6218495;23;19985;-80
2022/03/18 00:07:42;;;;;;;36.60;20.70;;;4.70;84.50;;;;;;6218834;22;19993;-79
2022/03/18 00:10:11;;;;;;;36.10;18.85;;;4.60;82.60;;;;;;6218408;22;20004;-81
2022/03/18 00:12:37;;;;;;;29.95;18.40;;;4.70;80.60;;;;;;6218974;23;20013;-79
2022/03/18 00:15:07;;;;;;;33.50;18.77;;;4.80;79.20;;;;;;6243868;22;20017;-80
2022/03/18 00:17:33;;;;;;;32.40;17.80;;;4.70;77.80;;;;;;6244341;23;19990;-76
2022/03/18 00:19:58;;;;;;;34.22;18.33;;;4.70;76.20;;;;;;6244651;22;19989;-78
2022/03/18 00:22:24;;;;;;;34.53;18.92;;;4.70;75.40;;;;;;6244596;22;20013;-78
2022/03/18 00:24:53;;;;;;;;;;;4.70;74.80;;;;;;6244995;22;19993;-75
2022/03/18 00:27:21;;;;;;;33.65;18.17;;;4.60;75.50;;;;;;6244774;22;19910;-77
2022/03/18 00:29:46;;;;;;;35.13;18.35;;;4.50;75.40;;;;;;6245401;22;20000;-78
2022/03/18 00:32:13;;;;;;;29.23;17.63;;;4.50;77.20;;;;;;6220237;22;20016;-79
2022/03/18 00:34:38;;;;;;;;;;;4.40;76.30;;;;;;6241645;23;20002;-79
2022/03/18 00:37:05;;;;;;;31.27;16.30;;;4.40;80.30;;;;;;6218166;23;19888;-80
2022/03/18 00:39:31;;;;;;;29.95;17.15;;;4.30;79.60;;;;;;6218664;23;20000;-81
2022/03/18 00:41:57;;;;;;;29.55;16.48;;;4.10;80.60;;;;;;6243256;22;20005;-79
2022/03/18 00:44:25;;;;;;;27.70;14.43;;;4.00;80.00;;;;;;6218820;23;20015;-80
2022/03/18 00:46:53;;;;;;;31.23;16.05;;;4.00;73.30;;;;;;6219049;23;20016;-80
2022/03/18 00:52:05;;;;;;;32.22;18.27;;;3.90;76.50;;;;;;6244243;23;20003;-80
2022/03/18 00:54:33;;;;;;;27.98;16.73;;;3.90;76.20;;;;;;6226120;23;20000;-81
2022/03/18 00:56:59;;;;;;;30.02;16.92;;;3.80;78.80;;;;;;6209511;23;20008;-79
2022/03/18 00:59:25;;;;;;;30.98;16.52;;;3.80;79.40;;;;;;6233380;23;20446;-79
2022/03/18 01:01:52;;;;;;;26.27;15.90;;;3.80;79.80;;;;;;6236146;23;20043;-79
2022/03/18 01:04:22;;;;;;;33.08;15.23;;;3.70;79.60;;;;;;6242742;23;20020;-80
2022/03/18 01:06:49;;;;;;;27.33;15.75;;;3.60;78.80;;;;;;6217312;23;20008;-81
2022/03/18 01:09:16;;;;;;;28.60;14.70;;;3.70;78.00;;;;;;6241767;23;19988;-79
2022/03/18 01:11:42;;;;;;;30.73;15.85;;;3.60;77.80;;;;;;6213708;23;20347;-79
2022/03/18 01:14:08;;;;;;;24.13;12.68;;;3.50;78.60;;;;;;6214726;23;20043;-80
2022/03/18 01:16:34;;;;;;;;;;;3.60;74.30;;;;;;6214851;23;20011;-80
2022/03/18 01:19:00;;;;;;;23.58;12.38;;;3.70;70.90;;;;;;6214387;23;19887;-79
2022/03/18 01:21:26;;;;;;;24.30;12.50;;;3.70;68.50;;;;;;6213774;23;20016;-80
2022/03/18 01:23:51;;;;;;;;;;;3.80;66.90;;;;;;6217391;23;19985;-81
2022/03/18 01:26:17;;;;;;;21.70;10.95;;;4.10;63.60;;;;;;6242555;23;19915;-83
2022/03/18 01:28:43;;;;;;;26.83;11.93;;;4.30;62.30;;;;;;6243096;23;19985;-79
2022/03/18 01:31:09;;;;;;;;;;;4.40;60.10;;;;;;6223292;23;20143;-78
2022/03/18 01:33:36;;;;;;;19.60;9.25;;;4.30;59.60;;;;;;6222445;23;19922;-80
2022/03/18 01:36:04;;;;;;;16.65;9.10;;;4.30;59.00;;;;;;6231283;23;19996;-79
2022/03/18 01:38:29;;;;;;;22.25;9.88;;;4.20;58.60;;;;;;6206673;23;20091;-79
2022/03/18 01:40:55;;;;;;;19.85;10.48;;;4.20;58.30;;;;;;6235916;23;20055;-79
2022/03/18 01:43:21;;;;;;;;;;;4.10;58.90;;;;;;6207834;23;20008;-79
2022/03/18 01:45:47;;;;;;;20.08;10.20;;;4.00;59.20;;;;;;6210198;23;19900;-80
2022/03/18 01:48:14;;;;;;;24.48;10.60;;;4.00;58.60;;;;;;6216184;23;19989;-78
2022/03/18 01:50:41;;;;;;;22.52;10.27;;;3.90;59.00;;;;;;6241446;23;20481;-80
2022/03/18 01:53:07;;;;;;;20.48;11.38;;;4.00;58.90;;;;;;6214755;23;19988;-79
2022/03/18 01:55:33;;;;;;;24.23;11.30;;;3.90;59.70;;;;;;6214705;23;20427;-81
2022/03/18 01:57:59;;;;;;;29.55;12.73;;;4.00;61.20;;;;;;6215783;23;19981;-81
2022/03/18 02:00:25;;;;;;;;;;;4.00;62.10;;;;;;6241942;23;20023;-81
2022/03/18 02:02:51;;;;;;;29.48;12.18;;;3.90;62.70;;;;;;6242500;23;19904;-81
2022/03/18 02:05:17;;;;;;;28.75;13.15;;;3.80;62.80;;;;;;6216644;23;19993;-81
2022/03/18 02:07:44;;;;;;;;;;;3.80;63.20;;;;;;6243795;23;20008;-80
2022/03/18 02:10:09;;;;;;;25.10;12.32;;;3.70;63.50;;;;;;6242642;23;19951;-80
2022/03/18 02:12:35;;;;;;;25.75;12.77;;;3.70;63.70;;;;;;6242788;23;20030;-80
2022/03/18 02:15:01;;;;;;;;;;;3.60;65.00;;;;;;6243417;23;19985;-80
2022/03/18 02:17:27;;;;;;;26.73;13.80;;;3.50;65.30;;;;;;6243644;23;20189;-80
2022/03/18 02:19:52;;;;;;;23.73;12.13;;;3.50;65.90;;;;;;6242589;23;20004;-80
2022/03/18 02:22:22;;;;;;;;;;;3.40;66.30;;;;;;6243425;23;19984;-79
2022/03/18 02:24:49;;;;;;;28.48;13.55;;;3.30;68.00;;;;;;6242989;23;19900;-81
2022/03/18 02:27:15;;;;;;;33.05;13.40;;;3.20;69.90;;;;;;6241966;23;19989;-80
2022/03/18 02:29:42;;;;;;;25.98;12.77;;;3.10;70.90;;;;;;6242600;23;20016;-80
2022/03/18 02:32:08;;;;;;;24.08;12.02;;;3.10;70.30;;;;;;6217904;23;20023;-80
2022/03/18 02:34:36;;;;;;;29.65;13.88;;;3.00;69.90;;;;;;6243754;23;19995;-80
2022/03/18 02:37:02;;;;;;;28.10;13.68;;;3.00;70.90;;;;;;6243728;23;19989;-81
2022/03/18 02:39:28;;;;;;;24.05;12.75;;;2.90;72.00;;;;;;6242708;23;20007;-80
2022/03/18 02:41:53;;;;;;;;;;;2.90;72.30;;;;;;6217694;23;20008;-80
2022/03/18 02:44:19;;;;;;;27.42;11.88;;;2.80;71.80;;;;;;6244752;23;19888;-78
2022/03/18 02:46:45;;;;;;;;;;;2.80;71.20;;;;;;6243968;23;20004;-80
2022/03/18 02:49:11;;;;;;;26.65;11.07;;;2.70;70.90;;;;;;6242221;23;19935;-80
2022/03/18 02:51:37;;;;;;;;;;;2.70;70.50;;;;;;6242971;23;20013;-80
2022/03/18 02:54:07;;;;;;;32.63;11.73;;;2.70;69.20;;;;;;6243949;23;19920;-80
2022/03/18 02:56:34;;;;;;;21.00;10.40;;;2.60;69.00;;;;;;6218010;23;20000;-81
2022/03/18 02:59:00;;;;;;;22.25;11.45;;;2.50;68.80;;;;;;6217635;22;20013;-80
2022/03/18 03:01:27;;;;;;;20.92;10.10;;;2.50;68.30;;;;;;6243147;23;19993;-81
2022/03/18 03:03:54;;;;;;;21.88;11.15;;;2.50;67.40;;;;;;6242752;23;20019;-80
2022/03/18 03:09:04;;;;;;;19.38;9.18;;;2.40;67.40;;;;;;6244595;22;20037;-80
2022/03/18 03:11:30;;;;;;;;;;;2.50;66.90;;;;;;6243797;22;19997;-81
2022/03/18 03:13:58;;;;;;;16.23;8.38;;;2.40;66.40;;;;;;6241395;22;19895;-79
2022/03/18 03:16:24;;;;;;;16.02;8.48;;;2.40;65.30;;;;;;6218612;23;19995;-81
2022/03/18 03:18:49;;;;;;;;;;;2.40;64.80;;;;;;6216758;23;19993;-79
2022/03/18 03:21:15;;;;;;;18.27;8.52;;;2.40;64.40;;;;;;6217792;23;19888;-80
2022/03/18 03:23:44;;;;;;;18.50;8.93;;;2.40;64.40;;;;;;6242320;22;20020;-78
2022/03/18 03:26:11;;;;;;;21.65;9.48;;;2.40;63.40;;;;;;6231904;23;19993;-80
2022/03/18 03:28:37;;;;;;;;;;;2.50;62.80;;;;;;6236839;23;20008;-79
2022/03/18 03:31:03;;;;;;;18.95;8.65;;;2.50;62.40;;;;;;6239241;23;19907;-79
2022/03/18 03:33:29;;;;;;;;;;;2.60;61.40;;;;;;6241373;23;20027;-80
2022/03/18 03:35:54;;;;;;;19.75;8.02;;;2.80;60.70;;;;;;6237578;22;19923;-79
2022/03/18 03:38:21;;;;;;;16.90;8.85;;;2.80;60.60;;;;;;6203835;23;20000;-79
2022/03/18 03:40:47;;;;;;;13.40;7.07;;;2.80;60.00;;;;;;6229858;23;20076;-79
2022/03/18 03:43:13;;;;;;;;;;;2.80;60.10;;;;;;6235092;23;20008;-78
2022/03/18 03:45:39;;;;;;;14.45;7.45;;;2.80;60.80;;;;;;6235021;23;19982;-80
2022/03/18 03:48:06;;;;;;;18.77;7.88;;;2.70;60.50;;;;;;6236812;23;20004;-79
2022/03/18 03:50:33;;;;;;;15.02;7.82;;;2.70;60.20;;;;;;6229895;23;20035;-79
2022/03/18 03:52:59;;;;;;;13.60;7.20;;;2.70;59.80;;;;;;6203503;23;20008;-80
2022/03/18 03:55:24;;;;;;;;;;;2.70;59.80;;;;;;6231143;23;20023;-79
2022/03/18 03:57:50;;;;;;;16.45;7.20;;;2.80;58.90;;;;;;6228984;23;19900;-79
2022/03/18 04:00:16;;;;;;;;;;;2.80;58.20;;;;;;6228775;23;20352;-80
2022/03/18 04:02:43;;;;;;;17.95;7.07;;;2.70;58.40;;;;;;6227988;23;19915;-79
2022/03/18 04:05:10;;;;;;;16.90;8.15;;;2.60;58.90;;;;;;6231552;23;20051;-79
2022/03/18 04:07:37;;;;;;;18.40;8.07;;;2.50;58.60;;;;;;6204521;23;20410;-79
2022/03/18 04:10:04;;;;;;;18.90;8.00;;;2.50;58.80;;;;;;6231743;23;20032;-76
2022/03/18 04:12:32;;;;;;;16.55;6.93;;;2.40;58.50;;;;;;6204367;23;20016;-77
2022/03/18 04:14:58;;;;;;;16.40;7.53;;;2.40;59.10;;;;;;6205387;23;20016;-77
2022/03/18 04:17:26;;;;;;;;;;;2.30;59.10;;;;;;6231957;23;20004;-78
2022/03/18 04:19:52;;;;;;;12.50;5.90;;;2.30;57.70;;;;;;6231313;23;19964;-78
2022/03/18 04:22:17;;;;;;;15.40;6.93;;;2.30;57.50;;;;;;6205180;23;19997;-78
2022/03/18 04:24:43;;;;;;;;;;;2.50;56.60;;;;;;6231616;23;20008;-78
2022/03/18 04:27:08;;;;;;;14.73;6.65;;;2.40;57.20;;;;;;6232525;23;19907;-78
2022/03/18 04:29:34;;;;;;;14.15;7.10;;;2.40;56.80;;;;;;6232362;23;20008;-78
2022/03/18 04:32:03;;;;;;;16.63;6.70;;;2.40;56.00;;;;;;6202301;23;20036;-78
2022/03/18 04:34:29;;;;;;;12.57;6.32;;;2.50;55.30;;;;;;6202680;23;20023;-80
2022/03/18 04:36:54;;;;;;;;;;;2.60;54.80;;;;;;6239383;23;20020;-80
2022/03/18 04:39:20;;;;;;;17.38;6.32;;;2.80;54.60;;;;;;6233033;23;19933;-79
2022/03/18 04:41:45;;;;;;;20.80;7.97;;;2.70;54.60;;;;;;6228215;23;19996;-78
2022/03/18 04:44:11;;;;;;;14.95;5.80;;;2.70;55.20;;;;;;6230372;23;20018;-78
2022/03/18 04:46:36;;;;;;;;;;;2.60;55.20;;;;;;6233246;23;20007;-79
2022/03/18 04:49:02;;;;;;;14.52;6.68;;;2.60;55.30;;;;;;6232889;23;19907;-77
2022/03/18 04:51:28;;;;;;;;;;;2.40;55.90;;;;;;6212729;23;20017;-78
2022/03/18 04:53:53;;;;;;;26.58;8.00;;;2.20;56.70;;;;;;6211753;23;19903;-79
2022/03/18 04:59:03;;;;;;;30.85;11.35;;;2.20;57.50;;;;;;6239970;23;19906;-79
2022/03/18 05:01:29;;;;;;;;;;;2.20;58.10;;;;;;6229827;23;20004;-78
2022/03/18 05:03:55;;;;;;;15.23;7.22;;;2.30;57.70;;;;;;6229007;23;19900;-78
2022/03/18 05:06:21;;;;;;;14.65;6.32;;;2.30;57.40;;;;;;6229681;23;20046;-79
2022/03/18 05:08:47;;;;;;;13.88;6.72;;;2.50;56.60;;;;;;6204067;23;20319;-78
2022/03/18 05:11:12;;;;;;;;;;;2.50;56.30;;;;;;6199465;23;20023;-78
2022/03/18 05:13:39;;;;;;;22.67;6.63;;;2.60;55.50;;;;;;6200626;23;19943;-78
2022/03/18 05:16:05;;;;;;;16.20;6.47;;;2.70;55.10;;;;;;6200917;23;20068;-78
2022/03/18 05:18:31;;;;;;;14.35;6.20;;;2.70;54.80;;;;;;6211131;23;20020;-80
2022/03/18 05:20:56;;;;;;;;;;;2.70;55.00;;;;;;6216307;23;20000;-80
2022/03/18 05:23:23;;;;;;;14.43;6.18;;;2.60;54.60;;;;;;6242701;22;19931;-79
2022/03/18 05:25:48;;;;;;;14.32;6.30;;;2.60;55.00;;;;;;6241984;23;20020;-80
2022/03/18 05:28:14;;;;;;;;;;;2.50;55.20;;;;;;6242559;23;20009;-81
2022/03/18 05:30:40;;;;;;;11.48;5.70;;;2.60;54.50;;;;;;6241775;23;19900;-80
2022/03/18 05:33:06;;;;;;;11.93;5.20;;;2.70;54.30;;;;;;6226155;23;20014;-78
2022/03/18 05:35:32;;;;;;;;;;;2.70;54.20;;;;;;6226175;23;20063;-79
2022/03/18 05:37:58;;;;;;;15.90;6.22;;;2.70;54.30;;;;;;6228135;23;19955;-79
2022/03/18 05:40:24;;;;;;;14.40;6.40;;;2.70;54.60;;;;;;6204009;23;20008;-80
2022/03/18 05:42:49;;;;;;;;;;;2.80;54.50;;;;;;6203519;23;20061;-79
2022/03/18 05:45:15;;;;;;;13.88;5.57;;;2.90;54.10;;;;;;6201695;23;19911;-78
2022/03/18 05:47:41;;;;;;;;;;;2.90;54.00;;;;;;6206531;23;20008;-78
2022/03/18 05:50:08;;;;;;;11.65;5.80;;;2.90;54.10;;;;;;6196899;23;19904;-79
2022/03/18 05:52:37;;;;;;;12.35;5.88;;;3.00;53.80;;;;;;6203874;23;20430;-79
2022/03/18 05:55:03;;;;;;;12.23;5.65;;;3.00;53.70;;;;;;6226446;23;20024;-79
2022/03/18 05:57:31;;;;;;;16.65;5.60;;;2.90;54.10;;;;;;6238053;23;20001;-79
2022/03/18 05:59:57;;;;;;;12.27;5.65;;;3.10;53.70;;;;;;6213077;23;19984;-79
2022/03/18 06:02:23;;;;;;;13.68;5.75;;;3.20;53.30;;;;;;6212417;23;20001;-79
2022/03/18 06:04:49;;;;;;;10.95;5.20;;;3.30;51.30;;;;;;6237690;23;19987;-78
2022/03/18 06:07:15;;;;;;;;;;;3.40;51.10;;;;;;6236945;23;20011;-79
2022/03/18 06:12:25;;;;;;;25.05;8.25;;;3.60;53.20;;;;;;6233139;23;20090;-79
2022/03/18 06:14:51;;;;;;;18.92;7.97;;;3.70;54.40;;;;;;6209982;23;20004;-79
2022/03/18 06:17:17;;;;;;;24.92;11.50;;;3.80;55.10;;;;;;6213423;23;20008;-80
2022/03/18 06:19:43;;;;;;;31.00;13.63;;;4.00;55.30;;;;;;6236394;23;20023;-79
2022/03/18 06:22:09;;;;;;;36.00;13.60;;;4.20;55.30;;;;;;6205139;23;20063;-79
2022/03/18 06:24:35;;;;;;;;;;;4.30;55.00;;;;;;6204617;23;20001;-78
2022/03/18 06:27:01;;;;;;;67.78;25.70;;;4.40;55.10;;;;;;6209088;23;19891;-81
2022/03/18 06:29:31;;;;;;;39.70;17.13;;;4.60;54.70;;;;;;6212971;23;20442;-77
2022/03/18 06:31:58;;;;;;;41.45;16.05;;;4.70;54.40;;;;;;6203020;23;20008;-79
2022/03/18 06:34:25;;;;;;;44.90;19.40;;;4.60;53.10;;;;;;6231748;23;20007;-78
2022/03/18 06:36:51;;;;;;;;;;;4.80;52.60;;;;;;6200384;23;20005;-78
2022/03/18 06:39:19;;;;;;;18.55;9.07;;;4.90;53.00;;;;;;6228011;23;19927;-79
2022/03/18 06:41:44;;;;;;;21.33;9.20;;;5.10;53.10;;;;;;6233548;23;20208;-79
2022/03/18 06:44:10;;;;;;;18.10;8.68;;;5.40;53.40;;;;;;6205036;23;20005;-78
2022/03/18 06:46:37;;;;;;;19.17;9.18;;;5.60;53.40;;;;;;6212440;23;19993;-79
2022/03/18 06:49:04;;;;;;;22.17;10.38;;;5.70;53.30;;;;;;6214306;23;20048;-80
2022/03/18 06:51:29;;;;;;;18.45;8.65;;;5.80;52.80;;;;;;6238910;23;20030;-79
2022/03/18 06:53:55;;;;;;;23.33;9.15;;;5.90;51.70;;;;;;6240040;22;20048;-79
2022/03/18 06:56:21;;;;;;;;;;;6.00;51.10;;;;;;6241278;22;19984;-79
2022/03/18 06:58:47;;;;;;;16.42;9.63;;;6.00;50.40;;;;;;6241955;23;19892;-79
2022/03/18 07:01:13;;;;;;;18.48;9.98;;;6.20;50.10;;;;;;6236709;23;19984;-79
2022/03/18 07:03:39;;;;;;;;;;;6.50;49.30;;;;;;6204892;23;20005;-78
2022/03/18 07:06:06;;;;;;;18.75;9.23;;;6.80;48.30;;;;;;6211283;22;19911;-79
2022/03/18 07:08:32;;;;;;;15.55;9.18;;;7.20;48.20;;;;;;6237981;23;20001;-81
2022/03/18 07:10:58;;;;;;;18.35;10.20;;;7.70;47.10;;;;;;6239104;23;20008;-80
2022/03/18 07:13:23;;;;;;;17.17;9.18;;;7.90;45.70;;;;;;6214719;23;19993;-80
2022/03/18 07:15:49;;;;;;;15.27;9.40;;;8.10;44.10;;;;;;6214228;23;20027;-80
2022/03/18 07:18:15;;;;;;;;;;;8.20;43.30;;;;;;6214643;23;20453;-79
2022/03/18 07:20:40;;;;;;;17.33;8.80;;;8.30;43.00;;;;;;6212287;23;19979;-80
2022/03/18 07:23:12;;;;;;;20.45;9.27;;;8.60;42.50;;;;;;6214022;23;19988;-79
2022/03/18 07:25:40;;;;;;;16.85;9.27;;;8.70;41.50;;;;;;6214141;23;20013;-80
2022/03/18 07:28:08;;;;;;;16.48;8.77;;;9.00;41.10;;;;;;6239945;22;19993;-80
2022/03/18 07:30:35;;;;;;;14.95;8.40;;;9.10;39.60;;;;;;6240390;22;20013;-78
2022/03/18 07:33:00;;;;;;;13.32;8.23;;;9.40;38.70;;;;;;6213950;23;20005;-80
2022/03/18 07:35:26;;;;;;;;;;;10.00;37.90;;;;;;6191293;23;20019;-84
2022/03/18 07:37:52;;;;;;;18.42;8.13;;;10.30;37.30;;;;;;6211013;23;19900;-82
2022/03/18 07:40:21;;;;;;;14.07;7.90;;;10.50;36.00;;;;;;6199741;23;20005;-80
2022/03/18 07:42:52;;;;;;;17.25;8.40;;;10.50;33.50;;;;;;6238862;23;19989;-78
2022/03/18 07:45:26;;;;;;;23.88;9.57;;;10.50;33.60;;;;;;6242797;23;20013;-78
2022/03/18 07:47:53;;;;;;;17.15;8.88;;;10.70;33.00;;;;;;6244764;23;20036;-78
2022/03/18 07:50:24;;;;;;;17.00;9.40;;;10.40;33.00;;;;;;6244331;22;20007;-78
2022/03/18 07:52:52;;;;;;;24.70;11.85;;;10.50;33.20;;;;;;6242305;22;19985;-79
2022/03/18 07:55:19;;;;;;;22.50;12.60;;;10.60;33.00;;;;;;6242140;22;20004;-77
2022/03/18 07:57:45;;;;;;;20.55;10.50;;;10.60;32.40;;;;;;6243578;23;19993;-79
2022/03/18 08:00:13;;;;;;;18.48;10.77;;;10.50;33.50;;;;;;6240650;23;19984;-79
2022/03/18 08:02:43;;;;;;;17.00;9.30;;;10.70;34.10;;;;;;6237401;23;20013;-78
2022/03/18 08:05:10;;;;;;;17.08;9.45;;;11.00;33.60;;;;;;6209545;23;20000;-78
2022/03/18 08:07:36;;;;;;;17.08;9.13;;;10.90;32.90;;;;;;6208680;23;20016;-79
2022/03/18 08:10:04;;;;;;;19.98;10.30;;;10.80;32.50;;;;;;6240922;23;20015;-77
2022/03/18 08:12:30;;;;;;;18.33;10.73;;;11.00;32.40;;;;;;6237303;23;20024;-78
2022/03/18 08:14:57;;;;;;;;;;;10.90;32.10;;;;;;6240976;23;20008;-78
2022/03/18 08:17:26;;;;;;;18.35;9.27;;;11.00;32.50;;;;;;6206600;23;20357;-80
2022/03/18 08:19:52;;;;;;;22.83;10.10;;;11.20;33.10;;;;;;6200832;23;20001;-83
2022/03/18 08:22:21;;;;;;;;;;;11.70;32.90;;;;;;6210073;23;20004;-82
2022/03/18 08:24:48;;;;;;;14.82;9.18;;;12.50;31.20;;;;;;6209078;23;19908;-85
2022/03/18 08:27:13;;;;;;;14.38;8.68;;;13.20;30.70;;;;;;6207028;23;20342;-83
2022/03/18 08:29:39;;;;;;;;;;;13.60;29.00;;;;;;6181993;23;20012;-84
2022/03/18 08:32:06;;;;;;;19.25;8.80;;;13.90;28.80;;;;;;6208430;23;20229;-85
2022/03/18 08:34:32;;;;;;;15.13;9.45;;;14.10;28.10;;;;;;6208737;23;20008;-85
2022/03/18 08:36:58;;;;;;;;;;;13.50;28.00;;;;;;6182642;23;20035;-86
2022/03/18 08:39:24;;;;;;;15.40;8.80;;;12.80;28.30;;;;;;6181307;23;19903;-86
2022/03/18 08:41:49;;;;;;;;;;;12.90;29.50;;;;;;6208770;23;20004;-83
2022/03/18 08:44:19;;;;;;;15.52;8.60;;;13.00;29.00;;;;;;6208059;23;19903;-82
2022/03/18 08:46:46;;;;;;;13.32;8.35;;;13.70;29.30;;;;;;6210514;23;20001;-82
2022/03/18 08:49:12;;;;;;;16.83;9.38;;;14.20;28.40;;;;;;6206364;23;20016;-83
2022/03/18 08:51:39;;;;;;;13.73;8.73;;;14.70;27.60;;;;;;6180267;23;20025;-81
2022/03/18 08:54:05;;;;;;;19.60;8.80;;;15.30;26.80;;;;;;6179697;23;20052;-83
2022/03/18 08:56:31;;;;;;;16.23;9.40;;;15.80;26.40;;;;;;6207955;23;20004;-81
2022/03/18 08:58:57;;;;;;;15.00;7.95;;;16.10;26.30;;;;;;6208107;23;20015;-80
2022/03/18 09:01:23;;;;;;;15.63;7.55;;;16.30;25.10;;;;;;6208627;23;20001;-82
2022/03/18 09:03:49;;;;;;;15.05;8.88;;;16.50;25.10;;;;;;6214044;23;20361;-82
2022/03/18 09:06:14;;;;;;;17.02;8.18;;;16.30;24.70;;;;;;6213035;23;20561;-81
2022/03/18 09:08:41;;;;;;;14.98;7.70;;;16.30;24.70;;;;;;6173954;23;20348;-82
2022/03/18 09:11:07;;;;;;;13.68;7.32;;;16.60;24.60;;;;;;6210320;23;20099;-81
2022/03/18 09:13:35;;;;;;;17.83;8.27;;;16.50;24.60;;;;;;6213167;23;20009;-80
2022/03/18 09:16:02;;;;;;;13.93;7.20;;;16.60;24.00;;;;;;6208053;23;20016;-80
2022/03/18 09:18:28;;;;;;;14.65;7.15;;;16.80;24.40;;;;;;6209707;23;20417;-80
2022/03/18 09:20:54;;;;;;;15.75;7.47;;;16.80;23.80;;;;;;6210205;23;20454;-81
2022/03/18 09:23:20;;;;;;;17.55;6.70;;;16.90;23.70;;;;;;6182751;23;20013;-80
2022/03/18 09:25:45;;;;;;;13.38;7.22;;;17.30;23.80;;;;;;6212935;23;20121;-80
2022/03/18 09:28:11;;;;;;;12.60;6.43;;;17.40;23.50;;;;;;6179925;23;20051;-80
2022/03/18 09:30:36;;;;;;;11.10;6.40;;;17.60;23.30;;;;;;6180154;23;20501;-79
2022/03/18 09:33:03;;;;;;;14.23;7.07;;;17.40;22.90;;;;;;6181436;23;20044;-80
2022/03/18 09:35:29;;;;;;;11.38;6.97;;;17.70;24.00;;;;;;6181887;23;20021;-80
2022/03/18 09:37:55;;;;;;;14.38;7.70;;;18.20;22.80;;;;;;6180990;23;20027;-79
2022/03/18 09:40:20;;;;;;;11.10;7.25;;;18.40;22.80;;;;;;6213732;23;20020;-80
2022/03/18 09:43:00;;;;;;;16.77;6.03;;;18.20;22.90;;;;;;6211652;23;20023;-83
2022/03/18 09:45:30;;;;;;;14.30;7.05;;;18.00;22.70;;;;;;6212901;23;20021;-78
2022/03/18 09:47:58;;;;;;;16.73;6.65;;;17.60;23.00;;;;;;6207623;23;20047;-80
2022/03/18 09:50:24;;;;;;;14.13;6.65;;;17.70;23.10;;;;;;6180405;23;20528;-79
2022/03/18 09:52:51;;;;;;;13.00;6.22;;;17.70;23.20;;;;;;6211777;23;20460;-78
2022/03/18 09:55:17;;;;;;;11.23;6.60;;;17.80;23.20;;;;;;6171908;23;20044;-82
2022/03/18 09:57:43;;;;;;;12.95;6.68;;;17.90;22.90;;;;;;6208049;23;20017;-83
2022/03/18 10:00:09;;;;;;;13.18;7.47;;;17.50;22.80;;;;;;6207735;23;20090;-83
2022/03/18 10:02:35;;;;;;;21.23;8.82;;;17.80;23.00;;;;;;6207914;23;20001;-82
2022/03/18 10:05:07;;;;;;;12.70;6.90;;;18.00;22.70;;;;;;6207495;23;20019;-83
2022/03/18 10:07:33;;;;;;;10.98;6.53;;;18.10;22.90;;;;;;6207243;23;20731;-82
2022/03/18 10:10:16;;;;;;;14.88;7.07;;;17.50;23.20;;;;;;6206289;23;20033;-84
2022/03/18 10:12:44;;;;;;;13.95;7.82;;;17.20;23.10;;;;;;6207592;23;20014;-81
2022/03/18 10:15:14;;;;;;;18.55;7.28;;;17.30;23.30;;;;;;6207628;23;20003;-83
2022/03/18 10:17:49;;;;;;;18.55;7.20;;;17.00;23.20;;;;;;6207595;23;20059;-82
2022/03/18 10:20:28;;;;;;;15.27;7.28;;;17.00;23.80;;;;;;6180506;23;20008;-79
2022/03/18 10:23:15;;;;;;;17.00;8.02;;;16.90;23.00;;;;;;6206984;23;20005;-84
2022/03/18 10:25:41;;;;;;;15.07;7.53;;;16.20;23.10;;;;;;6196073;23;20004;-86
2022/03/18 10:28:08;;;;;;;25.35;8.88;;;14.70;24.60;;;;;;6207739;23;20092;-81
2022/03/18 10:30:37;;;;;;;14.20;8.07;;;13.80;25.70;;;;;;6200385;23;20023;-77
2022/03/18 10:33:03;;;;;;;16.63;7.97;;;13.10;26.20;;;;;;6206874;23;19985;-78
2022/03/18 10:38:33;;;;;;;17.15;8.75;;;11.70;28.00;;;;;;6232471;23;20362;-78
2022/03/18 10:41:04;;;;;;;18.48;9.35;;;11.40;28.90;;;;;;6206093;23;20015;-78
2022/03/18 10:43:53;;;;;;;17.98;7.95;;;11.30;30.00;;;;;;6231793;23;20001;-78
2022/03/18 10:46:19;;;;;;;15.88;8.18;;;11.20;29.50;;;;;;6228435;23;20072;-80
2022/03/18 10:49:05;;;;;;;29.17;15.05;;;11.10;30.00;;;;;;6205702;23;20020;-80
2022/03/18 10:51:32;;;;;;;54.60;25.88;;;10.70;30.50;;;;;;6216455;23;20000;-79
2022/03/18 10:53:58;;;;;;;64.93;29.38;;;10.50;31.60;;;;;;6242223;22;20001;-79
2022/03/18 10:56:24;;;;;;;;;;;10.20;30.90;;;;;;6240509;23;20003;-78
2022/03/18 10:58:49;;;;;;;24.23;11.52;;;10.30;31.40;;;;;;6212455;23;20299;-79
2022/03/18 11:01:15;;;;;;;;;;;10.30;32.50;;;;;;6212787;23;20020;-80
2022/03/18 11:03:41;;;;;;;17.90;8.30;;;10.30;33.30;;;;;;6239537;22;19888;-79
2022/03/18 11:06:07;;;;;;;15.65;9.00;;;10.20;33.10;;;;;;6242476;22;20026;-80
2022/03/18 11:08:37;;;;;;;;;;;10.20;32.90;;;;;;6217984;23;20377;-79
2022/03/18 11:11:10;;;;;;;18.70;9.05;;;10.20;33.30;;;;;;6230457;23;19940;-78
2022/03/18 11:14:00;;;;;;;20.58;9.38;;;10.10;33.10;;;;;;6221645;23;20012;-79
2022/03/18 11:16:29;;;;;;;17.73;9.82;;;10.30;32.30;;;;;;6203247;23;19996;-79
2022/03/18 11:18:56;;;;;;;15.40;8.45;;;10.40;32.80;;;;;;6216457;23;20052;-78
2022/03/18 11:21:25;;;;;;;25.95;9.25;;;10.60;31.00;;;;;;6242066;22;19992;-79
2022/03/18 11:23:55;;;;;;;27.10;11.23;;;10.40;31.90;;;;;;6218937;23;19988;-80
2022/03/18 11:26:22;;;;;;;25.67;11.48;;;10.20;31.80;;;;;;6244571;22;19981;-79
2022/03/18 11:29:19;;;;;;;18.48;9.07;;;10.10;32.30;;;;;;6214938;23;20009;-80
2022/03/18 11:32:15;;;;;;;15.75;8.73;;;10.20;32.00;;;;;;6243636;23;20019;-80
2022/03/18 11:35:03;;;;;;;17.33;9.05;;;10.00;32.70;;;;;;6239239;23;20005;-80
2022/03/18 11:37:29;;;;;;;16.25;8.85;;;10.00;33.70;;;;;;6235652;23;20008;-80
2022/03/18 11:40:14;;;;;;;;;;;10.20;32.60;;;;;;6242910;22;19985;-80
2022/03/18 11:42:39;;;;;;;18.70;8.95;;;10.30;32.70;;;;;;6217380;23;19895;-78
2022/03/18 11:45:06;;;;;;;;;;;10.30;32.60;;;;;;6240998;22;20048;-80
2022/03/18 11:47:41;;;;;;;23.97;9.77;;;10.50;33.70;;;;;;6213593;23;19904;-80
2022/03/18 11:50:39;;;;;;;16.83;9.00;;;10.70;32.60;;;;;;6240495;23;20021;-79
2022/03/18 11:53:05;;;;;;;17.23;9.07;;;10.70;32.20;;;;;;6242460;22;20012;-80
2022/03/18 11:55:31;;;;;;;17.73;8.48;;;10.60;32.20;;;;;;6214568;23;20004;-80
2022/03/18 11:57:57;;;;;;;;;;;10.40;33.30;;;;;;6242665;23;19996;-80
2022/03/18 12:00:41;;;;;;;14.98;8.73;;;10.30;34.10;;;;;;6242808;23;19888;-80
2022/03/18 12:03:07;;;;;;;16.67;9.18;;;10.20;33.60;;;;;;6241225;23;20012;-80
2022/03/18 12:05:33;;;;;;;;;;;10.30;33.50;;;;;;6217220;23;19992;-81
2022/03/18 12:08:03;;;;;;;21.55;9.02;;;10.40;33.40;;;;;;6243052;23;19935;-80
2022/03/18 12:10:38;;;;;;;15.90;9.75;;;10.30;33.40;;;;;;6242012;23;20005;-80
2022/03/18 12:13:05;;;;;;;16.70;9.60;;;10.30;33.30;;;;;;6215925;23;19995;-80
2022/03/18 12:15:35;;;;;;;19.63;9.57;;;10.10;33.20;;;;;;6216255;23;20011;-80
2022/03/18 12:18:01;;;;;;;18.05;10.25;;;10.10;34.00;;;;;;6217064;23;20056;-80
2022/03/18 12:20:30;;;;;;;17.35;10.43;;;10.10;33.20;;;;;;6241294;23;20012;-80
2022/03/18 12:22:57;;;;;;;14.00;9.07;;;10.10;33.60;;;;;;6242533;23;19985;-80
2022/03/18 12:25:23;;;;;;;16.80;9.07;;;10.20;33.60;;;;;;6216779;23;19988;-80
2022/03/18 12:27:49;;;;;;;;;;;10.50;35.20;;;;;;6244132;23;19996;-82
2022/03/18 12:30:17;;;;;;;15.40;9.23;;;10.60;33.40;;;;;;6244752;23;19896;-80
2022/03/18 12:33:02;;;;;;;17.85;11.05;;;10.60;33.20;;;;;;6218754;23;20012;-80
2022/03/18 12:35:29;;;;;;;17.42;9.50;;;10.70;33.90;;;;;;6218168;23;19992;-80
2022/03/18 12:38:16;;;;;;;18.83;10.43;;;10.80;33.30;;;;;;6218300;23;20011;-80
2022/03/18 12:40:53;;;;;;;19.60;9.80;;;10.80;33.90;;;;;;6217964;23;19989;-80
2022/03/18 12:43:19;;;;;;;19.27;10.18;;;11.00;33.90;;;;;;6217642;23;20016;-80
2022/03/18 12:45:45;;;;;;;;;;;10.90;32.60;;;;;;6244937;23;20025;-80
2022/03/18 12:48:15;;;;;;;21.83;9.23;;;11.00;32.90;;;;;;6236316;23;19956;-80
2022/03/18 12:50:44;;;;;;;17.33;9.50;;;11.00;32.80;;;;;;6237342;23;20016;-79
2022/03/18 12:53:12;;;;;;;17.42;10.85;;;11.00;33.00;;;;;;6238390;23;20008;-80
2022/03/18 12:55:38;;;;;;;22.52;9.90;;;11.10;33.50;;;;;;6239000;23;20033;-79
2022/03/18 12:58:07;;;;;;;19.13;10.50;;;11.30;33.30;;;;;;6236653;23;20008;-80
2022/03/18 13:00:41;;;;;;;21.88;10.32;;;11.30;32.70;;;;;;6209664;23;20011;-80
2022/03/18 13:03:13;;;;;;;19.60;10.65;;;11.40;32.60;;;;;;6235916;23;20023;-79
2022/03/18 13:05:40;;;;;;;19.05;10.68;;;11.40;32.10;;;;;;6236564;23;20427;-80
2022/03/18 13:08:07;;;;;;;20.20;10.45;;;11.50;32.90;;;;;;6239387;23;20007;-79
2022/03/18 13:10:33;;;;;;;19.73;10.57;;;11.50;32.60;;;;;;6242568;23;20013;-80